createdAt,value
2019-03-21T00:26:46.130Z,61.25
2019-03-21T00:26:46.669Z,61.25
2019-03-21T00:26:47.268Z,61.54
2019-03-21T00:26:47.920Z,61.45
2019-03-21T00:26:48.472Z,61.16
2019-03-21T00:26:49.067Z,61.54
2019-03-21T00:26:49.667Z,61.25
2019-03-21T00:27:43.725Z,61.35
2019-03-21T00:27:44.322Z,61.35
2019-03-21T00:27:44.922Z,61.25
2019-03-21T00:27:45.520Z,60.97
2019-03-21T00:27:46.123Z,61.25
2019-03-21T00:27:46.721Z,61.16
2019-03-21T00:27:47.321Z,61.16
2019-03-21T00:28:41.377Z,61.16
2019-03-21T00:28:41.974Z,61.16
2019-03-21T00:28:42.573Z,61.25
2019-03-21T00:28:43.173Z,61.35
2019-03-21T00:28:43.773Z,61.45
2019-03-21T00:28:44.374Z,61.45
2019-03-21T00:28:45.035Z,61.25
2019-03-21T00:29:39.030Z,61.25
2019-03-21T00:29:39.626Z,61.45
2019-03-21T00:29:40.229Z,61.25
2019-03-21T00:29:40.827Z,61.25
2019-03-21T00:29:41.425Z,61.25
2019-03-21T00:29:42.025Z,61.45
2019-03-21T00:29:42.626Z,61.35
2019-03-21T00:30:36.708Z,61.35
2019-03-21T00:30:37.278Z,61.25
2019-03-21T00:30:37.878Z,61.35
2019-03-21T00:30:38.478Z,61.16
2019-03-21T00:30:39.084Z,61.45
2019-03-21T00:30:39.678Z,61.35
2019-03-21T00:30:40.281Z,61.35
2019-03-21T00:31:34.337Z,61.83
2019-03-21T00:31:34.934Z,61.64
2019-03-21T00:31:35.531Z,61.64
2019-03-21T00:31:36.131Z,61.64
2019-03-21T00:31:36.730Z,61.64
2019-03-21T00:31:37.331Z,61.83
2019-03-21T00:31:37.930Z,61.73
2019-03-21T00:32:31.988Z,61.64
2019-03-21T00:32:32.583Z,61.54
2019-03-21T00:32:33.185Z,61.64
2019-03-21T00:32:33.782Z,61.64
2019-03-21T00:32:34.382Z,61.73
2019-03-21T00:32:34.981Z,61.64
2019-03-21T00:32:35.582Z,61.54
2019-03-21T00:33:29.638Z,61.73
2019-03-21T00:33:30.235Z,61.73
2019-03-21T00:33:30.835Z,61.64
2019-03-21T00:33:31.435Z,61.83
2019-03-21T00:33:32.034Z,61.54
2019-03-21T00:33:32.633Z,61.64
2019-03-21T00:33:33.241Z,61.64
2019-03-21T00:34:27.289Z,61.73
2019-03-21T00:34:27.885Z,61.83
2019-03-21T00:34:28.487Z,61.83
2019-03-21T00:34:29.086Z,61.83
2019-03-21T00:34:29.688Z,61.93
2019-03-21T00:34:30.287Z,61.73
2019-03-21T00:34:30.886Z,61.64
2019-03-21T00:35:24.968Z,61.73
2019-03-21T00:35:25.539Z,62.05
2019-03-21T00:35:26.140Z,61.93
2019-03-21T00:35:26.738Z,61.83
2019-03-21T00:35:27.337Z,61.83
2019-03-21T00:35:27.978Z,61.83
2019-03-21T00:35:28.537Z,62.02
2019-03-21T00:36:22.594Z,62.12
2019-03-21T00:36:23.190Z,62.40
2019-03-21T00:36:23.790Z,62.02
2019-03-21T00:36:24.397Z,62.15
2019-03-21T00:36:24.989Z,62.15
2019-03-21T00:36:25.597Z,62.02
2019-03-21T00:36:26.189Z,62.05
2019-03-21T00:37:20.245Z,62.21
2019-03-21T00:37:20.843Z,62.24
2019-03-21T00:37:21.446Z,62.30
2019-03-21T00:37:22.054Z,62.30
2019-03-21T00:37:22.675Z,62.34
2019-03-21T00:37:23.240Z,62.30
2019-03-21T00:37:23.841Z,62.34
2019-03-21T00:38:17.898Z,62.52
2019-03-21T00:38:18.497Z,62.52
2019-03-21T00:38:19.104Z,62.24
2019-03-21T00:38:19.693Z,62.34
2019-03-21T00:38:20.294Z,62.24
2019-03-21T00:38:20.900Z,62.34
2019-03-21T00:38:21.494Z,62.21
2019-03-21T00:39:15.550Z,61.96
2019-03-21T00:39:16.158Z,62.05
2019-03-21T00:39:16.749Z,62.05
2019-03-21T00:39:17.346Z,62.05
2019-03-21T00:39:17.946Z,62.15
2019-03-21T00:39:18.548Z,62.15
2019-03-21T00:39:19.146Z,62.15
2019-03-21T00:40:13.228Z,63.00
2019-03-21T00:40:13.798Z,63.10
2019-03-21T00:40:14.398Z,62.91
2019-03-21T00:40:14.998Z,63.10
2019-03-21T00:40:15.597Z,62.91
2019-03-21T00:40:16.197Z,63.10
2019-03-21T00:40:16.796Z,63.10
2019-03-21T00:41:10.853Z,62.62
2019-03-21T00:41:11.450Z,63.10
2019-03-21T00:41:12.049Z,62.62
2019-03-21T00:41:12.649Z,62.72
2019-03-21T00:41:13.252Z,62.72
2019-03-21T00:41:13.850Z,62.72
2019-03-21T00:41:14.450Z,62.81
2019-03-21T00:42:08.505Z,63.10
2019-03-21T00:42:09.101Z,63.57
2019-03-21T00:42:09.702Z,62.91
2019-03-21T00:42:10.300Z,63.48
2019-03-21T00:42:10.900Z,63.57
2019-03-21T00:42:11.510Z,63.57
2019-03-21T00:42:12.100Z,63.10
2019-03-21T00:43:06.156Z,63.39
2019-03-21T00:43:06.755Z,63.67
2019-03-21T00:43:07.372Z,63.67
2019-03-21T00:43:07.953Z,63.57
2019-03-21T00:43:08.553Z,63.67
2019-03-21T00:43:09.156Z,63.67
2019-03-21T00:43:09.753Z,63.76
2019-03-21T00:44:03.809Z,63.86
2019-03-21T00:44:04.421Z,64.05
2019-03-21T00:44:05.004Z,64.43
2019-03-21T00:44:05.604Z,64.05
2019-03-21T00:44:06.204Z,63.96
2019-03-21T00:44:17.555Z,63.96
2019-03-21T00:44:17.579Z,64.24
2019-03-21T00:45:01.459Z,64.62
2019-03-21T00:45:02.060Z,64.43
2019-03-21T00:45:02.658Z,64.43
2019-03-21T00:45:03.266Z,64.53
2019-03-21T00:45:03.857Z,64.43
2019-03-21T00:45:04.457Z,64.43
2019-03-21T00:45:05.059Z,64.43
2019-03-21T00:45:59.136Z,64.53
2019-03-21T00:45:59.708Z,64.62
2019-03-21T00:46:00.309Z,64.53
2019-03-21T00:46:00.920Z,64.62
2019-03-21T00:46:01.507Z,64.62
2019-03-21T00:46:02.109Z,64.62
2019-03-21T00:46:02.706Z,64.53
2019-03-21T00:46:56.764Z,65.10
2019-03-21T00:46:57.361Z,65.10
2019-03-21T00:46:57.962Z,65.20
2019-03-21T00:46:58.562Z,65.10
2019-03-21T00:46:59.160Z,65.20
2019-03-21T00:46:59.764Z,64.91
2019-03-21T00:47:00.358Z,65.10
2019-03-21T00:47:54.417Z,65.48
2019-03-21T00:47:55.014Z,65.39
2019-03-21T00:47:55.616Z,65.48
2019-03-21T00:47:56.211Z,65.67
2019-03-21T00:47:56.811Z,65.96
2019-03-21T00:47:57.412Z,65.67
2019-03-21T00:47:58.012Z,66.05
2019-03-21T00:48:52.069Z,66.05
2019-03-21T00:48:52.664Z,66.05
2019-03-21T00:48:53.264Z,66.34
2019-03-21T00:48:53.864Z,65.86
2019-03-21T00:48:54.464Z,66.05
2019-03-21T00:48:55.065Z,66.15
2019-03-21T00:48:55.663Z,65.96
2019-03-21T00:49:49.721Z,67.39
2019-03-21T00:49:50.321Z,67.39
2019-03-21T00:49:50.917Z,67.20
2019-03-21T00:49:51.515Z,67.39
2019-03-21T00:49:52.114Z,67.20
2019-03-21T00:49:52.716Z,67.39
2019-03-21T00:49:53.315Z,67.20
2019-03-21T00:50:47.396Z,68.34
2019-03-21T00:50:47.969Z,68.34
2019-03-21T00:50:48.567Z,68.24
2019-03-21T00:50:49.167Z,68.34
2019-03-21T00:50:49.772Z,68.34
2019-03-21T00:50:50.371Z,68.44
2019-03-21T00:50:50.965Z,68.24
2019-03-21T00:51:45.023Z,68.34
2019-03-21T00:51:45.619Z,68.34
2019-03-21T00:51:46.220Z,68.44
2019-03-21T00:51:46.821Z,68.34
2019-03-21T00:51:47.420Z,68.44
2019-03-21T00:51:48.019Z,68.24
2019-03-21T00:51:48.620Z,68.24
2019-03-21T00:52:42.676Z,68.72
2019-03-21T00:52:43.271Z,68.63
2019-03-21T00:52:43.871Z,68.72
2019-03-21T00:52:44.471Z,68.63
2019-03-21T00:52:45.070Z,68.63
2019-03-21T00:52:45.670Z,68.72
2019-03-21T00:52:46.270Z,68.53
2019-03-21T00:53:40.326Z,68.91
2019-03-21T00:53:40.922Z,69.10
2019-03-21T00:53:41.524Z,68.82
2019-03-21T00:53:42.123Z,68.82
2019-03-21T00:53:42.722Z,68.91
2019-03-21T00:53:43.322Z,68.91
2019-03-21T00:53:43.922Z,68.63
2019-03-21T00:54:37.978Z,69.48
2019-03-21T00:54:38.575Z,69.39
2019-03-21T00:54:39.174Z,69.39
2019-03-21T00:54:39.774Z,69.29
2019-03-21T00:54:40.374Z,69.48
2019-03-21T00:54:40.977Z,69.48
2019-03-21T00:54:41.574Z,69.39
2019-03-21T00:55:35.654Z,69.39
2019-03-21T00:55:36.225Z,69.48
2019-03-21T00:55:36.825Z,69.77
2019-03-21T00:55:37.426Z,69.58
2019-03-21T00:55:38.026Z,69.48
2019-03-21T00:55:38.626Z,69.48
2019-03-21T00:55:39.225Z,69.48
2019-03-21T00:56:33.281Z,70.72
2019-03-21T00:56:33.877Z,70.34
2019-03-21T00:56:34.479Z,70.63
2019-03-21T00:56:35.084Z,70.72
2019-03-21T00:56:35.677Z,70.92
2019-03-21T00:56:36.278Z,70.72
2019-03-21T00:56:36.877Z,70.92
2019-03-21T00:57:30.933Z,71.20
2019-03-21T00:57:31.529Z,71.20
2019-03-21T00:57:32.184Z,71.58
2019-03-21T00:57:32.729Z,71.62
2019-03-21T00:57:33.328Z,71.23
2019-03-21T00:57:33.929Z,71.43
2019-03-21T00:57:34.529Z,71.62
2019-03-21T00:58:28.593Z,71.81
2019-03-21T00:58:29.183Z,71.81
2019-03-21T00:58:29.784Z,71.81
2019-03-21T00:58:30.381Z,72.00
2019-03-21T00:58:30.983Z,71.81
2019-03-21T00:58:31.581Z,71.33
2019-03-21T00:58:32.180Z,71.81
2019-03-21T00:59:25.725Z,71.81
2019-03-21T00:59:26.325Z,71.81
2019-03-21T00:59:26.922Z,71.81
2019-03-21T00:59:27.524Z,71.72
2019-03-21T00:59:28.123Z,71.81
2019-03-21T00:59:28.721Z,71.91
2019-03-21T00:59:29.321Z,72.00
2019-03-21T00:59:29.921Z,72.09
2019-03-21T01:00:23.989Z,72.57
2019-03-21T01:00:24.594Z,72.76
2019-03-21T01:00:25.187Z,72.76
2019-03-21T01:00:25.791Z,72.57
2019-03-21T01:00:26.386Z,72.57
2019-03-21T01:00:26.987Z,72.57
2019-03-21T01:00:27.587Z,72.67
2019-03-21T01:01:21.673Z,72.19
2019-03-21T01:01:22.242Z,72.38
2019-03-21T01:01:22.844Z,72.48
2019-03-21T01:01:23.444Z,72.48
2019-03-21T01:01:24.040Z,72.38
2019-03-21T01:01:24.639Z,72.19
2019-03-21T01:01:25.239Z,72.19
2019-03-21T01:02:19.294Z,73.14
2019-03-21T01:02:19.893Z,73.24
2019-03-21T01:02:20.494Z,73.14
2019-03-21T01:02:21.091Z,73.14
2019-03-21T01:02:21.690Z,73.24
2019-03-21T01:02:22.290Z,73.14
2019-03-21T01:02:22.891Z,73.24
2019-03-21T01:03:16.434Z,73.33
2019-03-21T01:03:17.034Z,73.62
2019-03-21T01:03:17.630Z,73.62
2019-03-21T01:03:18.228Z,73.43
2019-03-21T01:03:18.830Z,73.43
2019-03-21T01:03:19.430Z,73.43
2019-03-21T01:03:20.029Z,73.52
2019-03-21T01:03:20.632Z,73.52
2019-03-21T01:04:14.704Z,74.57
2019-03-21T01:04:15.296Z,74.77
2019-03-21T01:04:15.897Z,74.57
2019-03-21T01:04:16.496Z,74.48
2019-03-21T01:04:17.094Z,74.57
2019-03-21T01:04:17.696Z,74.29
2019-03-21T01:04:18.296Z,74.48
2019-03-21T01:05:12.352Z,75.34
2019-03-21T01:05:12.948Z,75.24
2019-03-21T01:05:13.549Z,75.24
2019-03-21T01:05:14.149Z,75.34
2019-03-21T01:05:14.749Z,75.15
2019-03-21T01:05:15.349Z,75.24
2019-03-21T01:05:15.949Z,75.34
2019-03-21T01:06:10.026Z,75.53
2019-03-21T01:06:10.599Z,75.34
2019-03-21T01:06:11.199Z,75.43
2019-03-21T01:06:11.799Z,75.62
2019-03-21T01:06:12.400Z,75.53
2019-03-21T01:06:13.000Z,75.53
2019-03-21T01:06:13.598Z,75.53
2019-03-21T01:07:07.655Z,76.10
2019-03-21T01:07:08.252Z,76.01
2019-03-21T01:07:08.850Z,76.01
2019-03-21T01:07:09.451Z,75.81
2019-03-21T01:07:10.053Z,76.20
2019-03-21T01:07:10.651Z,75.91
2019-03-21T01:07:11.252Z,75.81
2019-03-21T01:08:05.307Z,76.39
2019-03-21T01:08:05.903Z,76.57
2019-03-21T01:08:06.504Z,76.57
2019-03-21T01:08:07.103Z,76.57
2019-03-21T01:08:07.703Z,76.48
2019-03-21T01:08:08.304Z,76.57
2019-03-21T01:08:08.903Z,76.48
2019-03-21T01:09:02.959Z,76.39
2019-03-21T01:09:03.555Z,76.39
2019-03-21T01:09:04.155Z,76.67
2019-03-21T01:09:04.754Z,76.29
2019-03-21T01:09:05.354Z,76.67
2019-03-21T01:09:05.955Z,76.57
2019-03-21T01:09:06.553Z,76.29
2019-03-21T01:10:00.614Z,76.57
2019-03-21T01:10:01.206Z,76.77
2019-03-21T01:10:01.808Z,76.77
2019-03-21T01:10:02.408Z,76.77
2019-03-21T01:10:03.006Z,76.77
2019-03-21T01:10:03.611Z,76.48
2019-03-21T01:10:04.205Z,76.86
2019-03-21T01:10:58.262Z,76.57
2019-03-21T01:10:58.858Z,76.29
2019-03-21T01:10:59.458Z,76.29
2019-03-21T01:11:00.062Z,76.57
2019-03-21T01:11:00.657Z,76.20
2019-03-21T01:11:01.258Z,76.39
2019-03-21T01:11:01.861Z,76.39
2019-03-21T01:11:55.940Z,76.67
2019-03-21T01:11:56.511Z,76.29
2019-03-21T01:11:57.110Z,76.67
2019-03-21T01:11:57.709Z,76.48
2019-03-21T01:11:58.309Z,76.77
2019-03-21T01:11:58.911Z,76.86
2019-03-21T01:11:59.512Z,76.86
2019-03-21T01:12:53.566Z,77.44
2019-03-21T01:12:54.164Z,77.62
2019-03-21T01:12:54.762Z,77.44
2019-03-21T01:12:55.362Z,77.53
2019-03-21T01:12:55.961Z,77.44
2019-03-21T01:12:56.563Z,77.72
2019-03-21T01:12:57.163Z,77.15
2019-03-21T01:13:51.216Z,77.82
2019-03-21T01:13:51.815Z,77.82
2019-03-21T01:13:52.416Z,77.82
2019-03-21T01:13:53.013Z,78.01
2019-03-21T01:13:53.619Z,78.01
2019-03-21T01:13:54.213Z,77.91
2019-03-21T01:13:54.813Z,78.01
2019-03-21T01:14:48.870Z,77.72
2019-03-21T01:14:49.464Z,78.01
2019-03-21T01:14:50.065Z,77.72
2019-03-21T01:14:50.672Z,77.72
2019-03-21T01:14:51.265Z,77.72
2019-03-21T01:14:51.865Z,78.01
2019-03-21T01:14:52.465Z,78.01
2019-03-21T01:15:46.520Z,77.72
2019-03-21T01:15:47.116Z,77.62
2019-03-21T01:15:47.719Z,77.82
2019-03-21T01:15:48.316Z,77.91
2019-03-21T01:15:48.916Z,77.82
2019-03-21T01:15:49.522Z,78.30
2019-03-21T01:15:50.118Z,77.91
2019-03-21T01:16:44.196Z,79.06
2019-03-21T01:16:44.769Z,79.15
2019-03-21T01:16:45.367Z,79.15
2019-03-21T01:16:45.972Z,79.06
2019-03-21T01:16:46.568Z,79.06
2019-03-21T01:16:47.168Z,79.15
2019-03-21T01:16:47.767Z,79.15
2019-03-21T01:17:41.824Z,78.58
2019-03-21T01:17:42.421Z,78.58
2019-03-21T01:17:43.020Z,78.67
2019-03-21T01:17:43.621Z,78.49
2019-03-21T01:17:44.221Z,78.86
2019-03-21T01:17:44.824Z,78.58
2019-03-21T01:17:45.420Z,78.96
2019-03-21T01:18:39.478Z,78.96
2019-03-21T01:18:40.072Z,78.96
2019-03-21T01:18:40.671Z,78.96
2019-03-21T01:18:41.272Z,78.96
2019-03-21T01:18:41.871Z,78.58
2019-03-21T01:18:42.478Z,78.96
2019-03-21T01:18:43.073Z,78.86
2019-03-21T01:19:37.137Z,78.67
2019-03-21T01:19:37.725Z,79.35
2019-03-21T01:19:38.326Z,78.86
2019-03-21T01:19:38.924Z,79.15
2019-03-21T01:19:39.523Z,79.35
2019-03-21T01:19:40.124Z,78.67
2019-03-21T01:19:40.725Z,78.77
2019-03-21T01:20:34.782Z,79.63
2019-03-21T01:20:35.376Z,79.72
2019-03-21T01:20:35.974Z,79.91
2019-03-21T01:20:36.577Z,79.63
2019-03-21T01:20:37.178Z,79.63
2019-03-21T01:20:37.776Z,79.63
2019-03-21T01:20:38.378Z,79.63
2019-03-21T01:21:32.464Z,80.01
2019-03-21T01:21:33.030Z,79.82
2019-03-21T01:21:33.629Z,79.72
2019-03-21T01:21:34.227Z,79.72
2019-03-21T01:21:34.827Z,79.72
2019-03-21T01:21:35.431Z,79.63
2019-03-21T01:21:36.030Z,79.82
2019-03-21T01:22:30.084Z,80.01
2019-03-21T01:22:30.683Z,79.82
2019-03-21T01:22:31.280Z,79.91
2019-03-21T01:22:31.880Z,79.91
2019-03-21T01:22:32.479Z,79.72
2019-03-21T01:22:33.079Z,80.01
2019-03-21T01:22:33.682Z,79.72
2019-03-21T01:23:27.734Z,79.82
2019-03-21T01:23:28.332Z,79.82
2019-03-21T01:23:28.934Z,79.82
2019-03-21T01:23:29.531Z,79.82
2019-03-21T01:23:30.131Z,79.63
2019-03-21T01:23:30.733Z,79.63
2019-03-21T01:23:31.332Z,79.82
2019-03-21T01:24:24.875Z,79.63
2019-03-21T01:24:25.474Z,79.53
2019-03-21T01:24:26.072Z,79.63
2019-03-21T01:24:26.672Z,79.63
2019-03-21T01:24:27.272Z,79.63
2019-03-21T01:24:27.871Z,79.63
2019-03-21T01:24:28.473Z,79.63
2019-03-21T01:24:29.072Z,79.63
2019-03-21T01:25:23.142Z,80.20
2019-03-21T01:25:23.737Z,80.11
2019-03-21T01:25:24.337Z,80.20
2019-03-21T01:25:24.937Z,80.20
2019-03-21T01:25:25.536Z,80.30
2019-03-21T01:25:26.137Z,80.20
2019-03-21T01:25:26.738Z,80.30
2019-03-21T01:26:20.791Z,80.77
2019-03-21T01:26:21.389Z,80.68
2019-03-21T01:26:21.990Z,80.68
2019-03-21T01:26:22.589Z,80.58
2019-03-21T01:26:23.189Z,80.77
2019-03-21T01:26:23.791Z,80.58
2019-03-21T01:26:24.389Z,80.49
2019-03-21T01:27:18.468Z,80.87
2019-03-21T01:27:19.042Z,81.15
2019-03-21T01:27:19.641Z,80.77
2019-03-21T01:27:20.242Z,80.77
2019-03-21T01:27:20.840Z,80.87
2019-03-21T01:27:21.441Z,80.77
2019-03-21T01:27:22.041Z,80.96
2019-03-21T01:28:16.097Z,80.96
2019-03-21T01:28:16.696Z,80.39
2019-03-21T01:28:17.294Z,80.87
2019-03-21T01:28:17.892Z,80.39
2019-03-21T01:28:18.493Z,80.77
2019-03-21T01:28:19.093Z,80.58
2019-03-21T01:28:19.693Z,80.87
2019-03-21T01:29:13.237Z,80.39
2019-03-21T01:29:13.833Z,80.68
2019-03-21T01:29:14.434Z,80.58
2019-03-21T01:29:15.034Z,80.68
2019-03-21T01:29:15.636Z,80.39
2019-03-21T01:29:16.231Z,80.77
2019-03-21T01:29:16.833Z,80.68
2019-03-21T01:29:17.431Z,80.77
2019-03-21T01:30:10.990Z,80.96
2019-03-21T01:30:11.592Z,80.96
2019-03-21T01:30:12.188Z,80.96
2019-03-21T01:30:12.788Z,81.06
2019-03-21T01:30:13.386Z,80.96
2019-03-21T01:30:13.988Z,81.06
2019-03-21T01:30:14.589Z,81.06
2019-03-21T01:30:15.187Z,81.15
2019-03-21T01:31:09.256Z,81.15
2019-03-21T01:31:09.852Z,81.35
2019-03-21T01:31:10.452Z,80.96
2019-03-21T01:31:11.051Z,81.15
2019-03-21T01:31:11.651Z,81.06
2019-03-21T01:31:12.252Z,81.35
2019-03-21T01:31:12.850Z,81.15
2019-03-21T01:32:06.934Z,81.25
2019-03-21T01:32:07.505Z,81.44
2019-03-21T01:32:08.159Z,81.44
2019-03-21T01:32:08.704Z,81.15
2019-03-21T01:32:09.304Z,81.25
2019-03-21T01:32:09.904Z,81.44
2019-03-21T01:32:10.503Z,81.54
2019-03-21T01:33:04.562Z,81.06
2019-03-21T01:33:05.156Z,81.15
2019-03-21T01:33:05.754Z,80.96
2019-03-21T01:33:06.356Z,81.06
2019-03-21T01:33:06.955Z,80.96
2019-03-21T01:33:07.558Z,81.15
2019-03-21T01:33:08.155Z,81.25
2019-03-21T01:34:13.886Z,80.77
2019-03-21T01:34:14.480Z,80.77
2019-03-21T01:34:15.081Z,80.77
2019-03-21T01:34:15.682Z,80.77
2019-03-21T01:34:16.281Z,80.77
2019-03-21T01:34:16.883Z,80.68
2019-03-21T01:34:17.479Z,80.96
2019-03-21T01:35:11.541Z,80.68
2019-03-21T01:35:12.133Z,81.44
2019-03-21T01:35:12.732Z,81.15
2019-03-21T01:35:13.334Z,80.77
2019-03-21T01:35:13.933Z,80.68
2019-03-21T01:35:14.532Z,81.54
2019-03-21T01:35:15.132Z,81.54
2019-03-21T01:36:09.191Z,80.77
2019-03-21T01:36:09.786Z,80.30
2019-03-21T01:36:10.385Z,80.77
2019-03-21T01:36:10.984Z,80.39
2019-03-21T01:36:11.586Z,80.39
2019-03-21T01:36:12.184Z,80.58
2019-03-21T01:36:12.783Z,80.77
2019-03-21T01:37:06.867Z,81.06
2019-03-21T01:37:07.437Z,80.77
2019-03-21T01:37:08.035Z,80.68
2019-03-21T01:37:08.635Z,80.68
2019-03-21T01:37:09.236Z,80.77
2019-03-21T01:37:09.835Z,80.77
2019-03-21T01:37:10.435Z,80.77
2019-03-21T01:38:03.982Z,80.96
2019-03-21T01:38:04.578Z,81.06
2019-03-21T01:38:05.177Z,81.25
2019-03-21T01:38:05.779Z,81.35
2019-03-21T01:38:06.377Z,81.15
2019-03-21T01:38:06.976Z,80.96
2019-03-21T01:38:07.578Z,80.96
2019-03-21T01:38:08.177Z,81.44
2019-03-21T01:39:01.736Z,81.54
2019-03-21T01:39:02.331Z,81.35
2019-03-21T01:39:02.932Z,81.44
2019-03-21T01:39:03.535Z,81.44
2019-03-21T01:39:04.135Z,81.06
2019-03-21T01:39:04.730Z,81.35
2019-03-21T01:39:05.331Z,81.06
2019-03-21T01:39:05.931Z,81.06
2019-03-21T01:40:00.001Z,81.35
2019-03-21T01:40:00.596Z,81.15
2019-03-21T01:40:01.196Z,81.15
2019-03-21T01:40:01.795Z,80.87
2019-03-21T01:40:02.396Z,81.06
2019-03-21T01:40:02.998Z,81.06
2019-03-21T01:40:03.595Z,81.63
2019-03-21T01:40:57.652Z,81.54
2019-03-21T01:40:58.247Z,81.44
2019-03-21T01:40:58.846Z,81.15
2019-03-21T01:40:59.451Z,81.15
2019-03-21T01:41:00.048Z,81.06
2019-03-21T01:41:00.647Z,81.35
2019-03-21T01:41:01.250Z,81.35
2019-03-21T01:41:55.328Z,81.15
2019-03-21T01:41:55.899Z,81.44
2019-03-21T01:41:56.499Z,81.44
2019-03-21T01:41:57.099Z,81.44
2019-03-21T01:41:57.699Z,81.44
2019-03-21T01:41:58.300Z,81.44
2019-03-21T01:41:58.899Z,81.44
2019-03-21T01:42:52.954Z,81.15
2019-03-21T01:42:53.552Z,81.35
2019-03-21T01:42:54.152Z,81.35
2019-03-21T01:42:54.750Z,81.35
2019-03-21T01:42:55.941Z,81.35
2019-03-21T01:42:56.434Z,81.15
2019-03-21T01:44:10.474Z,81.82
2019-03-21T01:44:11.069Z,81.82
2019-03-21T01:44:11.666Z,81.82
2019-03-21T01:44:12.267Z,81.92
2019-03-21T01:44:12.884Z,81.82
2019-03-21T01:44:13.469Z,81.82
2019-03-21T01:44:14.069Z,81.73
2019-03-21T01:45:09.045Z,82.01
2019-03-21T01:45:09.642Z,82.11
2019-03-21T01:45:10.241Z,82.11
2019-03-21T01:45:10.841Z,82.01
2019-03-21T01:45:11.442Z,82.01
2019-03-21T01:45:12.042Z,82.20
2019-03-21T01:46:06.594Z,82.68
2019-03-21T01:46:07.191Z,82.78
2019-03-21T01:46:07.790Z,82.68
2019-03-21T01:46:08.397Z,82.59
2019-03-21T01:46:08.991Z,82.78
2019-03-21T01:46:09.590Z,82.87
2019-03-21T01:46:10.192Z,82.87
2019-03-21T01:47:04.292Z,82.59
2019-03-21T01:47:04.848Z,82.68
2019-03-21T01:47:05.444Z,82.78
2019-03-21T01:47:06.045Z,82.59
2019-03-21T01:47:06.643Z,82.87
2019-03-21T01:47:07.243Z,82.78
2019-03-21T01:47:07.841Z,82.78
2019-03-21T01:48:01.897Z,82.87
2019-03-21T01:48:02.496Z,82.68
2019-03-21T01:48:03.102Z,82.49
2019-03-21T01:48:03.697Z,82.49
2019-03-21T01:48:04.306Z,82.68
2019-03-21T01:48:04.903Z,82.68
2019-03-21T01:48:05.494Z,82.87
2019-03-21T01:49:00.575Z,82.87
2019-03-21T01:49:01.170Z,82.97
2019-03-21T01:49:01.770Z,82.68
2019-03-21T01:49:02.370Z,82.68
2019-03-21T01:49:02.974Z,82.68
2019-03-21T01:49:03.594Z,82.68
2019-03-21T01:49:58.124Z,83.25
2019-03-21T01:49:58.720Z,83.35
2019-03-21T01:49:59.319Z,83.16
2019-03-21T01:49:59.919Z,83.16
2019-03-21T01:50:00.520Z,83.16
2019-03-21T01:50:01.120Z,82.87
2019-03-21T01:50:01.720Z,83.25
2019-03-21T01:50:55.780Z,82.97
2019-03-21T01:50:56.381Z,82.97
2019-03-21T01:50:56.989Z,83.06
2019-03-21T01:50:57.570Z,83.44
2019-03-21T01:50:58.169Z,83.06
2019-03-21T01:50:58.771Z,83.06
2019-03-21T01:50:59.371Z,82.97
2019-03-21T01:52:00.389Z,83.73
2019-03-21T01:52:00.985Z,83.64
2019-03-21T01:52:01.586Z,83.73
2019-03-21T01:52:02.186Z,83.64
2019-03-21T01:52:02.784Z,83.73
2019-03-21T01:52:03.397Z,83.44
2019-03-21T01:52:04.005Z,83.73
2019-03-21T01:52:04.584Z,83.73
2019-03-21T01:52:05.185Z,83.73
2019-03-21T01:52:05.785Z,83.44
2019-03-21T01:52:06.393Z,83.73
2019-03-21T01:52:06.992Z,83.54
2019-03-21T01:53:00.527Z,83.35
2019-03-21T01:53:01.097Z,83.35
2019-03-21T01:53:01.696Z,83.83
2019-03-21T01:53:02.297Z,84.30
2019-03-21T01:53:02.898Z,83.35
2019-03-21T01:53:03.495Z,83.35
2019-03-21T01:53:04.096Z,84.11
2019-03-21T01:53:04.698Z,83.73
2019-03-21T01:53:58.771Z,84.11
2019-03-21T01:53:59.367Z,84.11
2019-03-21T01:53:59.961Z,83.83
2019-03-21T01:54:00.562Z,83.35
2019-03-21T01:54:01.160Z,83.44
2019-03-21T01:54:01.761Z,83.35
2019-03-21T01:54:02.362Z,83.25
2019-03-21T01:54:56.419Z,84.11
2019-03-21T01:54:57.014Z,84.20
2019-03-21T01:54:57.616Z,84.40
2019-03-21T01:54:58.214Z,84.11
2019-03-21T01:54:58.814Z,84.11
2019-03-21T01:54:59.415Z,83.92
2019-03-21T01:55:00.013Z,83.83
2019-03-21T01:55:54.068Z,84.01
2019-03-21T01:55:54.666Z,84.01
2019-03-21T01:55:55.264Z,84.01
2019-03-21T01:55:55.872Z,84.01
2019-03-21T01:55:56.479Z,84.01
2019-03-21T01:55:57.067Z,84.01
2019-03-21T01:55:57.666Z,84.01
2019-03-21T01:56:51.719Z,84.20
2019-03-21T01:56:52.316Z,84.40
2019-03-21T01:56:52.917Z,84.49
2019-03-21T01:56:53.522Z,84.40
2019-03-21T01:56:54.115Z,84.40
2019-03-21T01:56:54.716Z,84.78
2019-03-21T01:56:55.316Z,84.20
2019-03-21T01:57:49.407Z,85.06
2019-03-21T01:57:49.968Z,85.16
2019-03-21T01:57:50.574Z,85.06
2019-03-21T01:57:51.170Z,85.16
2019-03-21T01:57:51.768Z,85.35
2019-03-21T01:57:52.368Z,85.06
2019-03-21T01:57:53.004Z,85.06
2019-03-21T01:58:47.025Z,85.45
2019-03-21T01:58:47.622Z,85.45
2019-03-21T01:58:48.226Z,85.35
2019-03-21T01:58:48.826Z,85.25
2019-03-21T01:58:49.420Z,85.35
2019-03-21T01:58:50.020Z,85.45
2019-03-21T01:58:50.619Z,85.35
2019-03-21T01:59:57.281Z,85.83
2019-03-21T01:59:57.873Z,85.83
2019-03-21T01:59:58.476Z,85.87
2019-03-21T01:59:59.068Z,85.83
2019-03-21T01:59:59.669Z,85.35
2019-03-21T02:00:00.439Z,85.73
2019-03-21T02:00:00.868Z,85.35
2019-03-21T02:00:54.926Z,85.54
2019-03-21T02:00:55.519Z,85.54
2019-03-21T02:00:56.120Z,85.54
2019-03-21T02:00:56.720Z,85.83
2019-03-21T02:00:57.319Z,85.58
2019-03-21T02:00:57.918Z,85.73
2019-03-21T02:00:58.520Z,85.54
2019-03-21T02:01:52.574Z,86.02
2019-03-21T02:01:53.171Z,86.02
2019-03-21T02:01:53.772Z,86.11
2019-03-21T02:01:54.372Z,86.11
2019-03-21T02:01:54.970Z,86.02
2019-03-21T02:01:55.570Z,86.02
2019-03-21T02:01:56.170Z,86.02
2019-03-21T02:02:51.182Z,86.40
2019-03-21T02:02:51.759Z,86.30
2019-03-21T02:02:52.343Z,86.40
2019-03-21T02:02:52.942Z,86.40
2019-03-21T02:02:53.545Z,86.30
2019-03-21T02:02:54.142Z,86.30
2019-03-21T02:02:54.744Z,86.25
2019-03-21T02:04:09.076Z,87.16
2019-03-21T02:04:09.672Z,86.49
2019-03-21T02:04:10.272Z,86.40
2019-03-21T02:04:10.871Z,86.02
2019-03-21T02:04:11.471Z,86.59
2019-03-21T02:04:12.072Z,86.30
2019-03-21T02:05:06.625Z,87.07
2019-03-21T02:05:07.220Z,87.07
2019-03-21T02:05:07.821Z,87.16
2019-03-21T02:05:08.426Z,87.26
2019-03-21T02:05:09.019Z,86.98
2019-03-21T02:05:09.620Z,87.16
2019-03-21T02:05:10.219Z,86.98
2019-03-21T02:06:04.276Z,87.07
2019-03-21T02:06:04.874Z,87.35
2019-03-21T02:06:05.473Z,87.07
2019-03-21T02:06:06.079Z,87.07
2019-03-21T02:06:06.671Z,87.35
2019-03-21T02:06:07.271Z,87.40
2019-03-21T02:06:07.872Z,86.98
2019-03-21T02:07:01.934Z,86.98
2019-03-21T02:07:02.554Z,87.26
2019-03-21T02:07:03.127Z,87.16
2019-03-21T02:07:03.721Z,87.16
2019-03-21T02:07:04.321Z,87.16
2019-03-21T02:07:04.921Z,87.26
2019-03-21T02:07:05.524Z,87.07
2019-03-21T02:07:59.103Z,87.07
2019-03-21T02:07:59.666Z,87.16
2019-03-21T02:08:00.265Z,87.07
2019-03-21T02:08:00.864Z,86.98
2019-03-21T02:08:01.471Z,87.11
2019-03-21T02:08:02.065Z,87.07
2019-03-21T02:08:02.716Z,87.07
2019-03-21T02:08:03.272Z,87.07
2019-03-21T02:08:57.334Z,87.35
2019-03-21T02:08:57.931Z,87.45
2019-03-21T02:08:58.529Z,87.45
2019-03-21T02:08:59.129Z,87.45
2019-03-21T02:08:59.731Z,87.54
2019-03-21T02:09:00.334Z,87.07
2019-03-21T02:09:00.930Z,87.35
2019-03-21T02:09:54.986Z,87.07
2019-03-21T02:09:55.584Z,86.88
2019-03-21T02:09:56.186Z,86.88
2019-03-21T02:09:56.783Z,86.78
2019-03-21T02:09:57.384Z,86.69
2019-03-21T02:09:57.983Z,86.78
2019-03-21T02:09:58.595Z,86.73
2019-03-21T02:10:52.638Z,86.98
2019-03-21T02:10:53.240Z,86.88
2019-03-21T02:10:53.835Z,86.88
2019-03-21T02:10:54.435Z,87.45
2019-03-21T02:10:55.035Z,87.35
2019-03-21T02:10:55.636Z,87.07
2019-03-21T02:10:56.235Z,87.35
2019-03-21T02:11:50.291Z,86.98
2019-03-21T02:11:50.889Z,86.98
2019-03-21T02:11:51.487Z,86.98
2019-03-21T02:11:52.089Z,86.98
2019-03-21T02:11:52.690Z,86.88
2019-03-21T02:11:53.287Z,86.98
2019-03-21T02:11:53.887Z,86.78